This is the latest recevied weather packets stored in our database for station/object W8RD. If no packets are shown the sender has not sent any weather packets the latest 10 day(s).
| Time | Temp. | Humidity | Pressure | Rain* | Wind** | Luminosity | Snow |
|---|---|---|---|---|---|---|---|
| 1777861369 | 22.78° C | 65% | 1018.3 hPa | 0 mm | - | 0 W/m² | - |
| 1777860764 | 22.78° C | 64% | 1018 hPa | 0 mm | - | 0 W/m² | - |
| 1777860163 | 22.22° C | 65% | 1017.8 hPa | 0 mm | - | 0 W/m² | - |
| 1777859562 | 22.22° C | 66% | 1017.6 hPa | 0 mm | - | 0 W/m² | - |
| 1777858960 | 22.22° C | 66% | 1017.7 hPa | 0 mm | - | 0 W/m² | - |
| 1777858355 | 22.22° C | 66% | 1017.5 hPa | 0 mm | - | 0 W/m² | - |
| 1777857755 | 22.22° C | 66% | 1017.3 hPa | 0 mm | - | 0 W/m² | - |
| 1777857155 | 22.78° C | 66% | 1017.3 hPa | 0 mm | - | 0 W/m² | - |
| 1777856552 | 22.78° C | 65% | 1017.1 hPa | 0 mm | - | 0 W/m² | - |
| 1777855952 | 22.78° C | 65% | 1017 hPa | 0 mm | - | 0 W/m² | - |
| 1777855352 | 22.78° C | 64% | 1016.8 hPa | 0 mm | - | 0 W/m² | - |
| 1777854752 | 23.33° C | 63% | 1016.9 hPa | 0 mm | - | 0 W/m² | - |
| 1777854151 | 23.33° C | 63% | 1016.7 hPa | 0 mm | - | 0 W/m² | - |
| 1777853551 | 23.33° C | 62% | 1016.4 hPa | 0 mm | - | 1 W/m² | - |
| 1777852951 | 23.33° C | 62% | 1016.3 hPa | 0 mm | - | 3 W/m² | - |
| 1777852346 | 23.33° C | 63% | 1016.3 hPa | 0 mm | - | 9 W/m² | - |
| 1777851742 | 23.89° C | 63% | 1016.6 hPa | 0 mm | - | 15 W/m² | - |
| 1777851139 | 23.89° C | 62% | 1016.6 hPa | 0 mm | - | 23 W/m² | - |
| 1777850540 | 24.44° C | 61% | 1016.6 hPa | 0 mm | - | 26 W/m² | - |
| 1777849934 | 24.44° C | 61% | 1016.5 hPa | 0 mm | - | 40 W/m² | - |
| 1777849334 | 24.44° C | 62% | 1016.5 hPa | 0 mm | - | 31 W/m² | - |
| 1777848731 | 24.44° C | 61% | 1016.5 hPa | 0 mm | - | 37 W/m² | - |
| 1777848127 | 25° C | 62% | 1016.5 hPa | 0 mm | - | 38 W/m² | - |
| 1777847521 | 25° C | 61% | 1016.5 hPa | 0 mm | - | 92 W/m² | - |
| 1777846915 | 25° C | 60% | 1016.5 hPa | 0 mm | - | 84 W/m² | - |
* Rain latest hour (hover to see other rain measurements)
** Current wind speed in m/s (hover to see current wind gust speed)